createdAt,value
2023-03-05T00:01:43.104Z,59.49
2023-03-05T00:04:15.669Z,59.49
2023-03-05T00:06:44.761Z,59.47
2023-03-05T00:09:13.618Z,58.87
2023-03-05T00:11:42.820Z,59.38
2023-03-05T00:14:12.668Z,59.10
2023-03-05T00:16:41.864Z,59.34
2023-03-05T00:19:12.066Z,59.26
2023-03-05T00:21:42.629Z,59.09
2023-03-05T00:24:14.725Z,58.48
2023-03-05T00:26:44.054Z,58.72
2023-03-05T00:29:16.394Z,58.94
2023-03-05T00:31:47.076Z,58.35
2023-03-05T00:34:18.238Z,58.55
2023-03-05T00:36:52.598Z,58.15
2023-03-05T00:39:22.742Z,58.15
2023-03-05T00:41:51.574Z,57.74
2023-03-05T00:44:20.560Z,57.41
2023-03-05T00:46:49.472Z,57.54
2023-03-05T00:49:18.476Z,56.93
2023-03-05T00:51:47.254Z,56.78
2023-03-05T00:54:16.115Z,56.59
2023-03-05T00:56:45.566Z,56.20
2023-03-05T00:59:14.362Z,56.20
2023-03-05T01:01:43.571Z,56.05
2023-03-05T01:04:12.988Z,55.61
2023-03-05T01:06:45.215Z,55.29
2023-03-05T01:09:15.748Z,55.24
2023-03-05T01:11:44.517Z,55.34
2023-03-05T01:14:13.296Z,54.60
2023-03-05T01:16:42.074Z,54.86
2023-03-05T01:19:12.674Z,54.04
2023-03-05T01:21:42.123Z,53.56
2023-03-05T01:24:11.386Z,53.51
2023-03-05T01:26:40.173Z,53.42
2023-03-05T01:29:08.931Z,53.27
2023-03-05T01:31:37.797Z,53.09
2023-03-05T01:34:06.782Z,52.53
2023-03-05T01:36:35.610Z,51.73
2023-03-05T01:39:04.549Z,51.03
2023-03-05T01:41:34.488Z,51.12
2023-03-05T01:44:03.764Z,50.72
2023-03-05T01:46:37.530Z,49.80
2023-03-05T01:49:16.208Z,49.69
2023-03-05T01:51:57.077Z,48.63
2023-03-05T01:54:40.313Z,48.03
2023-03-05T01:57:16.983Z,47.41
2023-03-05T01:59:48.626Z,48.07
2023-03-05T02:02:20.468Z,48.05
2023-03-05T02:04:55.567Z,45.26
2023-03-05T02:07:25.133Z,44.39
2023-03-05T02:09:54.090Z,43.21
2023-03-05T02:12:23.329Z,42.05
2023-03-05T02:15:13.310Z,42.30
2023-03-05T02:17:42.094Z,43.11
2023-03-05T02:20:17.562Z,42.80
2023-03-05T02:22:46.763Z,41.69
2023-03-05T02:25:30.317Z,40.50
2023-03-05T02:28:14.040Z,41.20
2023-03-05T02:30:43.264Z,42.24
2023-03-05T02:33:12.216Z,43.46
2023-03-05T02:35:41.587Z,43.62
2023-03-05T02:38:12.053Z,42.75
2023-03-05T02:40:41.134Z,41.18
2023-03-05T02:43:10.863Z,40.03
2023-03-05T02:45:40.585Z,40.08
2023-03-05T02:48:09.344Z,40.72
2023-03-05T02:50:40.279Z,39.84
2023-03-05T02:53:09.311Z,38.21
2023-03-05T02:55:39.093Z,39.28
2023-03-05T02:58:07.962Z,37.91
2023-03-05T03:00:37.150Z,37.50
2023-03-05T03:03:06.572Z,36.59
2023-03-05T03:05:36.621Z,35.93
2023-03-05T03:08:05.734Z,35.97
2023-03-05T03:10:34.669Z,36.90
2023-03-05T03:13:03.806Z,35.60
2023-03-05T03:15:32.623Z,35.47
2023-03-05T03:18:01.423Z,34.42
2023-03-05T03:20:30.472Z,34.04
2023-03-05T03:22:59.225Z,33.37
2023-03-05T03:25:28.074Z,33.47
2023-03-05T03:27:56.921Z,34.15
2023-03-05T03:30:25.688Z,35.57
2023-03-05T03:32:54.414Z,36.84
2023-03-05T03:35:23.294Z,36.44
2023-03-05T03:37:52.143Z,36.72
2023-03-05T03:40:21.063Z,37.28
2023-03-05T03:42:52.806Z,36.91
2023-03-05T03:45:22.885Z,37.66
2023-03-05T03:47:52.797Z,37.56
2023-03-05T03:50:22.313Z,37.65
2023-03-05T03:52:51.405Z,37.72
2023-03-05T03:55:20.202Z,37.95
2023-03-05T03:57:49.145Z,38.45
2023-03-05T04:00:19.368Z,38.56
2023-03-05T04:02:48.323Z,38.57
2023-03-05T04:05:17.292Z,38.27
2023-03-05T04:07:46.086Z,38.67
2023-03-05T04:10:14.873Z,37.63
2023-03-05T04:12:44.122Z,37.11
2023-03-05T04:15:13.162Z,37.68
2023-03-05T04:17:41.986Z,37.99
2023-03-05T04:20:11.601Z,38.77
2023-03-05T04:22:40.453Z,39.17
2023-03-05T04:25:10.280Z,39.08
2023-03-05T04:27:40.746Z,37.46
2023-03-05T04:30:15.341Z,36.07
2023-03-05T04:32:44.249Z,36.23
2023-03-05T04:35:13.103Z,36.51
2023-03-05T04:37:41.813Z,37.05
2023-03-05T04:40:11.873Z,37.00
2023-03-05T04:42:40.953Z,36.15
2023-03-05T04:45:10.338Z,37.53
2023-03-05T04:47:39.215Z,37.63
2023-03-05T04:50:08.762Z,36.78
2023-03-05T04:52:42.210Z,36.16
2023-03-05T04:55:15.877Z,33.53
2023-03-05T04:57:45.221Z,32.76
2023-03-05T05:00:17.339Z,32.80
2023-03-05T05:02:48.868Z,32.67
2023-03-05T05:05:20.804Z,31.15
2023-03-05T05:07:49.580Z,32.10
2023-03-05T05:10:18.420Z,33.25
2023-03-05T05:12:47.299Z,33.82
2023-03-05T05:15:16.359Z,34.65
2023-03-05T05:17:45.268Z,35.25
2023-03-05T05:20:15.795Z,36.42
2023-03-05T05:22:45.076Z,37.42
2023-03-05T05:25:13.890Z,39.19
2023-03-05T05:27:42.739Z,37.37
2023-03-05T05:30:12.171Z,35.59
2023-03-05T05:32:41.130Z,34.17
2023-03-05T05:35:11.316Z,31.74
2023-03-05T05:37:40.089Z,31.71
2023-03-05T05:40:10.223Z,31.80
2023-03-05T05:42:39.129Z,31.87
2023-03-05T05:45:08.688Z,32.86
2023-03-05T05:47:37.740Z,33.67
2023-03-05T05:50:08.378Z,33.73
2023-03-05T05:52:37.054Z,34.85
2023-03-05T05:55:06.282Z,35.79
2023-03-05T05:57:35.963Z,36.06
2023-03-05T06:00:09.298Z,37.32
2023-03-05T06:02:41.552Z,37.67
2023-03-05T06:05:13.577Z,35.66
2023-03-05T06:07:42.411Z,33.75
2023-03-05T06:10:12.049Z,32.46
2023-03-05T06:12:41.175Z,32.17
2023-03-05T06:15:10.537Z,31.28
2023-03-05T06:17:39.433Z,31.58
2023-03-05T06:20:09.314Z,33.09
2023-03-05T06:22:39.932Z,34.15
2023-03-05T06:25:09.908Z,34.54
2023-03-05T06:27:39.869Z,35.92
2023-03-05T06:30:09.514Z,37.16
2023-03-05T06:32:38.554Z,37.00
2023-03-05T06:35:07.495Z,36.54
2023-03-05T06:37:36.333Z,36.53
2023-03-05T06:40:06.134Z,37.37
2023-03-05T06:42:35.908Z,37.89
2023-03-05T06:45:05.225Z,38.54
2023-03-05T06:47:34.494Z,39.22
2023-03-05T06:50:03.265Z,38.89
2023-03-05T06:52:32.216Z,37.41
2023-03-05T06:55:00.940Z,35.42
2023-03-05T06:57:29.825Z,34.43
2023-03-05T06:59:58.436Z,33.33
2023-03-05T07:02:28.469Z,33.15
2023-03-05T07:04:57.391Z,34.16
2023-03-05T07:07:26.123Z,34.46
2023-03-05T07:09:56.254Z,33.82
2023-03-05T07:12:25.084Z,33.61
2023-03-05T07:14:53.834Z,33.40
2023-03-05T07:17:22.539Z,31.80
2023-03-05T07:19:51.309Z,29.93
2023-03-05T07:22:20.113Z,29.88
2023-03-05T07:24:48.793Z,29.91
2023-03-05T07:27:17.563Z,31.67
2023-03-05T07:29:46.545Z,33.73
2023-03-05T07:32:15.318Z,35.05
2023-03-05T07:34:44.063Z,35.07
2023-03-05T07:37:14.074Z,32.88
2023-03-05T07:39:42.872Z,32.56
2023-03-05T07:42:11.622Z,31.70
2023-03-05T07:44:53.294Z,32.68
2023-03-05T07:47:23.849Z,34.14
2023-03-05T07:49:52.727Z,35.80
2023-03-05T07:52:21.616Z,37.12
2023-03-05T07:54:50.560Z,38.07
2023-03-05T07:57:19.261Z,39.12
2023-03-05T07:59:48.040Z,38.93
2023-03-05T08:02:17.300Z,37.05
2023-03-05T08:04:46.662Z,35.01
2023-03-05T08:07:17.059Z,33.64
2023-03-05T08:09:45.842Z,32.25
2023-03-05T08:12:14.626Z,33.18
2023-03-05T08:14:43.496Z,34.30
2023-03-05T08:17:12.252Z,35.50
2023-03-05T08:19:41.014Z,36.20
2023-03-05T08:22:09.821Z,37.20
2023-03-05T08:24:38.600Z,36.66
2023-03-05T08:27:07.381Z,36.86
2023-03-05T08:29:36.397Z,37.14
2023-03-05T08:32:05.687Z,38.40
2023-03-05T08:34:34.545Z,38.92
2023-03-05T08:37:03.203Z,39.59
2023-03-05T08:39:32.205Z,39.24
2023-03-05T08:42:00.990Z,39.34
2023-03-05T08:44:29.740Z,39.04
2023-03-05T08:46:58.538Z,38.92
2023-03-05T08:49:27.218Z,38.79
2023-03-05T08:51:55.996Z,38.98
2023-03-05T08:54:24.798Z,40.32
2023-03-05T08:56:53.543Z,38.43
2023-03-05T08:59:22.277Z,36.67
2023-03-05T09:01:52.419Z,35.90
2023-03-05T09:04:21.471Z,35.78
2023-03-05T09:06:50.159Z,37.17
2023-03-05T09:09:21.845Z,38.46
2023-03-05T09:11:52.530Z,39.46
2023-03-05T09:14:21.596Z,39.94
2023-03-05T09:16:50.270Z,40.46
2023-03-05T09:19:18.997Z,40.88
2023-03-05T09:21:48.162Z,41.65
2023-03-05T09:24:17.068Z,41.71
2023-03-05T09:26:45.816Z,41.97
2023-03-05T09:29:14.538Z,42.14
2023-03-05T09:31:44.669Z,42.52
2023-03-05T09:34:13.546Z,43.39
2023-03-05T09:36:42.297Z,43.60
2023-03-05T09:39:11.220Z,43.91
2023-03-05T09:42:17.091Z,44.61
2023-03-05T09:44:48.886Z,44.60
2023-03-05T09:47:26.580Z,45.21
2023-03-05T09:50:17.165Z,45.52
2023-03-05T09:52:58.796Z,45.50
2023-03-05T09:55:51.404Z,45.18
2023-03-05T09:58:34.756Z,45.31
2023-03-05T10:01:11.523Z,45.22
2023-03-05T10:04:13.235Z,45.26
2023-03-05T10:06:51.540Z,45.51
2023-03-05T10:09:52.071Z,45.56
2023-03-05T10:12:43.557Z,45.87
2023-03-05T10:15:52.407Z,46.35
2023-03-05T10:18:30.718Z,46.11
2023-03-05T10:21:03.210Z,46.66
2023-03-05T10:23:44.373Z,46.91
2023-03-05T10:26:22.329Z,47.17
2023-03-05T10:29:20.060Z,47.60
2023-03-05T10:32:04.204Z,47.90
2023-03-05T10:34:54.310Z,48.31
2023-03-05T10:37:34.250Z,48.51
2023-03-05T10:40:41.210Z,48.56
2023-03-05T10:43:25.495Z,48.78
2023-03-05T10:45:55.843Z,49.15
2023-03-05T10:48:47.706Z,49.13
2023-03-05T10:51:29.976Z,49.09
2023-03-05T10:54:19.981Z,49.16
2023-03-05T10:56:49.035Z,49.59
2023-03-05T10:59:18.601Z,49.26
2023-03-05T11:02:05.899Z,49.25
2023-03-05T11:04:37.938Z,49.56
2023-03-05T11:07:16.727Z,49.58
2023-03-05T11:10:16.380Z,49.62
2023-03-05T11:12:46.331Z,49.34
2023-03-05T11:15:15.783Z,49.89
2023-03-05T11:17:49.722Z,49.57
2023-03-05T11:20:35.439Z,49.78
2023-03-05T11:23:18.862Z,49.69
2023-03-05T11:26:16.867Z,49.61
2023-03-05T11:29:16.661Z,49.72
2023-03-05T11:31:45.440Z,49.79
2023-03-05T11:34:20.399Z,49.85
2023-03-05T11:36:55.067Z,49.99
2023-03-05T11:39:26.133Z,49.84
2023-03-05T11:42:00.854Z,50.14
2023-03-05T11:44:44.629Z,49.92
2023-03-05T11:47:52.864Z,50.11
2023-03-05T11:50:27.814Z,49.96
2023-03-05T11:53:05.429Z,49.88
2023-03-05T11:55:43.026Z,50.37
2023-03-05T11:58:48.581Z,49.91
2023-03-05T12:01:23.356Z,50.11
2023-03-05T12:03:54.373Z,50.15
2023-03-05T12:06:34.585Z,50.21
2023-03-05T12:09:14.256Z,50.46
2023-03-05T12:11:43.752Z,50.37
2023-03-05T12:14:27.989Z,50.28
2023-03-05T12:16:59.783Z,50.32
2023-03-05T12:19:29.109Z,50.53
2023-03-05T12:21:58.411Z,50.66
2023-03-05T12:24:28.525Z,50.82
2023-03-05T12:27:03.506Z,50.97
2023-03-05T12:29:45.728Z,50.59
2023-03-05T12:32:23.680Z,50.26
2023-03-05T12:35:01.423Z,50.94
2023-03-05T12:37:33.376Z,51.13
2023-03-05T12:40:20.142Z,51.25
2023-03-05T12:43:04.988Z,50.43
2023-03-05T12:45:41.604Z,50.70
2023-03-05T12:48:12.771Z,51.06
2023-03-05T12:50:41.688Z,50.48
2023-03-05T12:53:16.667Z,50.72
2023-03-05T12:55:48.124Z,50.82
2023-03-05T12:58:22.735Z,50.48
2023-03-05T13:01:18.105Z,51.33
2023-03-05T13:03:55.958Z,50.70
2023-03-05T13:06:28.776Z,51.16
2023-03-05T13:09:09.890Z,50.93
2023-03-05T13:11:39.842Z,51.13
2023-03-05T13:14:32.678Z,51.03
2023-03-05T13:17:02.749Z,50.85
2023-03-05T13:19:34.346Z,50.91
2023-03-05T13:22:11.593Z,51.54
2023-03-05T13:24:40.402Z,51.26
2023-03-05T13:27:30.501Z,51.14
2023-03-05T13:29:59.234Z,51.59
2023-03-05T13:32:31.102Z,51.41
2023-03-05T13:35:02.366Z,51.51
2023-03-05T13:37:36.381Z,51.29
2023-03-05T13:40:27.168Z,51.15
2023-03-05T13:43:09.226Z,51.29
2023-03-05T13:45:38.360Z,51.34
2023-03-05T13:48:08.528Z,51.51
2023-03-05T13:50:42.649Z,51.50
2023-03-05T13:53:44.837Z,51.26
2023-03-05T13:56:20.031Z,51.19
2023-03-05T13:58:56.876Z,51.76
2023-03-05T14:01:43.085Z,51.35
2023-03-05T14:04:15.418Z,51.75
2023-03-05T14:07:08.262Z,51.65
2023-03-05T14:09:48.412Z,51.63
2023-03-05T14:12:44.051Z,51.66
2023-03-05T14:15:23.742Z,51.40
2023-03-05T14:17:54.379Z,51.54
2023-03-05T14:20:25.006Z,51.97
2023-03-05T14:23:26.744Z,51.85
2023-03-05T14:26:29.000Z,51.45
2023-03-05T14:29:03.950Z,51.54
2023-03-05T14:31:39.803Z,51.58
2023-03-05T14:34:08.820Z,52.16
2023-03-05T14:36:39.652Z,52.02
2023-03-05T14:39:09.141Z,52.09
2023-03-05T14:41:40.200Z,51.79
2023-03-05T14:44:14.418Z,51.69
2023-03-05T14:46:44.893Z,51.91
2023-03-05T14:49:13.761Z,52.26
2023-03-05T14:51:45.577Z,52.04
2023-03-05T14:54:27.068Z,51.94
2023-03-05T14:56:56.276Z,52.47
2023-03-05T14:59:25.633Z,52.22
2023-03-05T15:01:54.991Z,52.33
2023-03-05T15:04:24.668Z,52.10
2023-03-05T15:06:54.405Z,52.38
2023-03-05T15:09:23.467Z,52.13
2023-03-05T15:11:52.276Z,52.27
2023-03-05T15:14:21.033Z,51.95
2023-03-05T15:16:50.196Z,52.57
2023-03-05T15:19:19.574Z,52.50
2023-03-05T15:21:48.568Z,52.28
2023-03-05T15:24:17.319Z,52.51
2023-03-05T15:26:45.985Z,52.35
2023-03-05T15:29:15.019Z,52.54
2023-03-05T15:31:45.383Z,52.46
2023-03-05T15:34:14.185Z,52.64
2023-03-05T15:36:42.928Z,52.90
2023-03-05T15:39:12.487Z,52.54
2023-03-05T15:41:41.322Z,52.72
2023-03-05T15:44:10.209Z,52.91
2023-03-05T15:46:39.057Z,53.05
2023-03-05T15:49:07.854Z,52.66
2023-03-05T15:51:36.682Z,53.10
2023-03-05T15:54:06.142Z,52.90
2023-03-05T15:56:35.264Z,52.77
2023-03-05T15:59:04.453Z,52.67
2023-03-05T16:01:33.922Z,52.89
2023-03-05T16:04:03.575Z,52.97
2023-03-05T16:06:34.447Z,52.98
2023-03-05T16:09:06.151Z,52.93
2023-03-05T16:11:38.663Z,52.57
2023-03-05T16:14:10.848Z,53.05
2023-03-05T16:16:39.948Z,52.40
2023-03-05T16:19:12.537Z,53.09
2023-03-05T16:21:41.534Z,52.86
2023-03-05T16:24:10.497Z,52.96
2023-03-05T16:26:41.463Z,53.00
2023-03-05T16:29:10.449Z,53.02
2023-03-05T16:31:42.027Z,53.00
2023-03-05T16:34:11.134Z,52.86
2023-03-05T16:36:41.553Z,53.21
2023-03-05T16:39:10.447Z,52.86
2023-03-05T16:41:39.283Z,52.88
2023-03-05T16:44:08.281Z,53.03
2023-03-05T16:46:37.790Z,53.29
2023-03-05T16:49:07.061Z,53.30
2023-03-05T16:51:36.530Z,53.24
2023-03-05T16:54:05.262Z,53.50
2023-03-05T16:56:34.591Z,53.55
2023-03-05T16:59:03.452Z,53.51
2023-03-05T17:01:32.660Z,53.40
2023-03-05T17:04:02.708Z,53.00
2023-03-05T17:06:33.771Z,53.38
2023-03-05T17:09:04.065Z,53.34
2023-03-05T17:11:32.976Z,53.32
2023-03-05T17:14:04.560Z,53.34
2023-03-05T17:16:34.157Z,53.52
2023-03-05T17:19:02.990Z,53.19
2023-03-05T17:21:31.853Z,53.01
2023-03-05T17:24:00.769Z,53.02
2023-03-05T17:26:29.497Z,53.54
2023-03-05T17:28:58.648Z,52.96
2023-03-05T17:31:27.540Z,53.30
2023-03-05T17:33:57.381Z,53.22
2023-03-05T17:36:26.775Z,53.25
2023-03-05T17:38:55.679Z,53.21
2023-03-05T17:41:24.829Z,53.40
2023-03-05T17:43:53.594Z,53.40
2023-03-05T17:46:22.387Z,53.66
2023-03-05T17:48:51.365Z,53.68
2023-03-05T17:51:21.531Z,53.73
2023-03-05T17:53:51.668Z,53.42
2023-03-05T17:56:23.103Z,53.45
2023-03-05T17:58:53.441Z,53.08
2023-03-05T18:01:31.688Z,53.81
2023-03-05T18:04:00.764Z,53.31
2023-03-05T18:06:29.920Z,53.47
2023-03-05T18:08:58.713Z,53.60
2023-03-05T18:11:28.197Z,53.35
2023-03-05T18:13:57.500Z,53.40
2023-03-05T18:16:26.491Z,53.46
2023-03-05T18:18:55.246Z,53.31
2023-03-05T18:21:25.929Z,53.09
2023-03-05T18:23:55.175Z,53.50
2023-03-05T18:26:23.952Z,53.71
2023-03-05T18:28:53.380Z,53.27
2023-03-05T18:31:22.180Z,53.10
2023-03-05T18:33:51.565Z,53.41
2023-03-05T18:36:20.454Z,53.57
2023-03-05T18:38:49.342Z,53.70
2023-03-05T18:41:27.695Z,53.41
2023-03-05T18:43:56.953Z,53.87
2023-03-05T18:46:27.235Z,53.34
2023-03-05T18:48:56.142Z,53.41
2023-03-05T18:51:26.898Z,53.06
2023-03-05T18:53:58.421Z,53.68
2023-03-05T18:56:27.176Z,53.74
2023-03-05T18:58:57.961Z,53.50
2023-03-05T19:01:28.562Z,53.39
2023-03-05T19:03:57.948Z,53.66
2023-03-05T19:06:27.372Z,53.17
2023-03-05T19:08:59.175Z,53.79
2023-03-05T19:11:27.997Z,53.55
2023-03-05T19:13:57.578Z,53.64
2023-03-05T19:16:31.015Z,53.52
2023-03-05T19:19:14.330Z,53.25
2023-03-05T19:21:50.327Z,53.43
2023-03-05T19:24:19.159Z,53.62
2023-03-05T19:26:48.678Z,53.33
2023-03-05T19:29:17.492Z,53.27
2023-03-05T19:31:46.351Z,53.27
2023-03-05T19:34:15.294Z,53.38
2023-03-05T19:36:44.141Z,53.68
2023-03-05T19:39:13.450Z,53.87
2023-03-05T19:41:42.267Z,53.55
2023-03-05T19:44:13.067Z,53.62
2023-03-05T19:46:42.585Z,53.59
2023-03-05T19:49:12.435Z,53.52
2023-03-05T19:51:43.254Z,53.99
2023-03-05T19:54:14.192Z,53.44
2023-03-05T19:56:44.694Z,53.72
2023-03-05T19:59:17.753Z,53.64
2023-03-05T20:01:47.597Z,53.79
2023-03-05T20:04:22.328Z,53.65
2023-03-05T20:06:51.235Z,53.60
2023-03-05T20:09:20.539Z,53.62
2023-03-05T20:11:49.326Z,53.21
2023-03-05T20:14:18.112Z,53.69
2023-03-05T20:16:46.910Z,53.35
2023-03-05T20:19:18.951Z,53.78
2023-03-05T20:21:48.789Z,53.79
2023-03-05T20:24:20.001Z,53.55
2023-03-05T20:26:49.470Z,53.89
2023-03-05T20:29:20.405Z,53.63
2023-03-05T20:31:50.649Z,53.66
2023-03-05T20:34:20.554Z,53.21
2023-03-05T20:36:49.850Z,53.53
2023-03-05T20:39:19.110Z,53.19
2023-03-05T20:41:48.631Z,53.59
2023-03-05T20:44:17.975Z,53.56
2023-03-05T20:47:00.199Z,53.37
2023-03-05T20:49:30.476Z,54.01
2023-03-05T20:51:59.337Z,53.49
2023-03-05T20:54:28.668Z,53.77
2023-03-05T20:56:57.333Z,53.44
2023-03-05T20:59:26.364Z,53.43
2023-03-05T21:01:56.127Z,53.80
2023-03-05T21:04:25.488Z,53.45
2023-03-05T21:06:54.895Z,53.81
2023-03-05T21:09:23.815Z,54.25
2023-03-05T21:11:52.552Z,54.16
2023-03-05T21:14:21.288Z,53.95
2023-03-05T21:16:50.161Z,53.95
2023-03-05T21:19:18.872Z,53.93
2023-03-05T21:21:47.657Z,54.08
2023-03-05T21:24:17.656Z,54.18
2023-03-05T21:26:46.466Z,54.19
2023-03-05T21:29:15.256Z,54.34
2023-03-05T21:31:44.791Z,54.48
2023-03-05T21:34:15.184Z,54.55
2023-03-05T21:36:44.150Z,54.40
2023-03-05T21:39:12.910Z,54.28
2023-03-05T21:41:41.667Z,54.15
2023-03-05T21:44:11.912Z,54.54
2023-03-05T21:46:40.807Z,54.33
2023-03-05T21:49:09.551Z,54.56
2023-03-05T21:51:50.017Z,54.40
2023-03-05T21:54:18.848Z,54.68
2023-03-05T21:56:47.675Z,54.58
2023-03-05T21:59:16.837Z,54.47
2023-03-05T22:01:46.397Z,54.53
2023-03-05T22:04:16.297Z,54.91
2023-03-05T22:06:45.280Z,54.75
2023-03-05T22:09:14.605Z,55.36
2023-03-05T22:11:44.210Z,55.54
2023-03-05T22:14:13.199Z,55.34
2023-03-05T22:16:41.922Z,55.36
2023-03-05T22:19:11.083Z,55.61
2023-03-05T22:21:39.878Z,55.59
2023-03-05T22:24:08.891Z,55.79
2023-03-05T22:26:40.833Z,55.79
2023-03-05T22:29:12.357Z,56.15
2023-03-05T22:31:41.956Z,55.65
2023-03-05T22:34:11.230Z,55.80
2023-03-05T22:36:40.113Z,55.84
2023-03-05T22:39:08.873Z,55.23
2023-03-05T22:41:37.794Z,55.48
2023-03-05T22:44:07.313Z,55.87
2023-03-05T22:46:36.387Z,55.75
2023-03-05T22:49:05.150Z,55.98
2023-03-05T22:51:34.331Z,55.96
2023-03-05T22:54:03.325Z,56.02
2023-03-05T22:56:32.135Z,55.93
2023-03-05T22:59:00.848Z,56.23
2023-03-05T23:01:30.175Z,56.23
2023-03-05T23:04:05.967Z,56.19
2023-03-05T23:06:34.998Z,56.23
2023-03-05T23:09:04.467Z,56.47
2023-03-05T23:11:33.407Z,56.18
2023-03-05T23:14:02.150Z,56.70
2023-03-05T23:16:30.920Z,56.93
2023-03-05T23:18:59.909Z,56.63
2023-03-05T23:21:28.644Z,57.10
2023-03-05T23:23:58.410Z,57.05
2023-03-05T23:26:27.163Z,57.05
2023-03-05T23:28:56.099Z,57.45
2023-03-05T23:31:25.078Z,57.73
2023-03-05T23:33:53.911Z,57.92
2023-03-05T23:36:26.665Z,58.45
2023-03-05T23:38:58.143Z,58.48
2023-03-05T23:41:26.940Z,58.49
2023-03-05T23:43:55.749Z,58.50
2023-03-05T23:46:25.376Z,58.79
2023-03-05T23:48:54.123Z,59.10
2023-03-05T23:51:22.892Z,59.14
2023-03-05T23:53:51.648Z,59.28
2023-03-05T23:56:20.369Z,59.59
2023-03-05T23:58:49.395Z,59.38
